createdAt,value
2018-11-12T00:00:39.100Z,2.73
2018-11-12T00:02:55.836Z,2.53
2018-11-12T00:05:08.042Z,3.60
2018-11-12T00:07:20.243Z,2.37
2018-11-12T00:09:32.464Z,3.10
2018-11-12T00:11:44.643Z,4.53
2018-11-12T00:13:56.934Z,2.20
2018-11-12T00:16:09.142Z,2.70
2018-11-12T00:18:21.375Z,3.00
2018-11-12T00:20:33.575Z,2.30
2018-11-12T00:22:46.319Z,2.13
2018-11-12T00:24:58.563Z,3.47
2018-11-12T00:27:10.772Z,2.73
2018-11-12T00:29:23.046Z,3.23
2018-11-12T00:31:35.259Z,2.37
2018-11-12T00:33:47.442Z,5.57
2018-11-12T00:35:59.677Z,2.40
2018-11-12T00:38:11.869Z,2.20
2018-11-12T00:40:24.106Z,2.40
2018-11-12T00:42:36.288Z,2.30
2018-11-12T00:44:48.488Z,3.30
2018-11-12T00:47:00.750Z,2.90
2018-11-12T00:49:12.936Z,2.63
2018-11-12T00:51:25.134Z,2.73
2018-11-12T00:53:37.465Z,2.17
2018-11-12T00:55:49.644Z,2.83
2018-11-12T00:58:01.843Z,3.30
2018-11-12T01:00:16.628Z,2.10
2018-11-12T01:02:28.829Z,3.13
2018-11-12T01:04:41.172Z,1.90
2018-11-12T01:06:53.387Z,2.23
2018-11-12T01:09:07.683Z,2.70
2018-11-12T01:11:19.911Z,2.07
2018-11-12T01:13:32.087Z,3.20
2018-11-12T01:15:44.332Z,2.40
2018-11-12T01:17:56.553Z,2.20
2018-11-12T01:20:10.071Z,2.67
2018-11-12T01:22:22.290Z,1.67
2018-11-12T01:24:34.477Z,2.20
2018-11-12T01:26:46.679Z,1.80
2018-11-12T01:28:58.864Z,2.33
2018-11-12T01:31:11.058Z,1.90
2018-11-12T01:33:23.255Z,1.70
2018-11-12T01:35:35.442Z,1.70
2018-11-12T01:37:47.631Z,2.23
2018-11-12T01:39:59.833Z,1.90
2018-11-12T01:42:12.147Z,1.77
2018-11-12T01:44:24.274Z,2.30
2018-11-12T01:46:36.482Z,2.17
2018-11-12T01:48:48.699Z,2.07
2018-11-12T01:51:00.875Z,1.43
2018-11-12T01:53:13.120Z,1.23
2018-11-12T01:55:25.336Z,1.87
2018-11-12T01:57:37.606Z,2.10
2018-11-12T01:59:49.786Z,1.47
2018-11-12T02:02:01.978Z,2.83
2018-11-12T02:04:14.214Z,1.40
2018-11-12T02:06:26.430Z,3.13
2018-11-12T02:08:38.790Z,2.30
2018-11-12T02:10:50.844Z,1.30
2018-11-12T02:13:03.062Z,1.77
2018-11-12T02:15:17.298Z,2.13
2018-11-12T02:17:29.511Z,1.57
2018-11-12T02:19:41.690Z,1.57
2018-11-12T02:21:53.923Z,1.50
2018-11-12T02:24:06.118Z,1.50
2018-11-12T02:26:18.285Z,1.50
2018-11-12T02:28:30.531Z,1.73
2018-11-12T02:30:47.584Z,3.10
2018-11-12T02:32:59.804Z,1.57
2018-11-12T02:35:12.003Z,2.27
2018-11-12T02:37:24.174Z,1.27
2018-11-12T02:39:36.358Z,1.80
2018-11-12T02:41:48.551Z,1.53
2018-11-12T02:44:00.781Z,2.83
2018-11-12T02:46:13.035Z,1.23
2018-11-12T02:48:25.215Z,1.10
2018-11-12T02:50:37.473Z,1.53
2018-11-12T02:52:49.699Z,1.20
2018-11-12T02:55:01.907Z,1.10
2018-11-12T02:57:14.192Z,1.00
2018-11-12T02:59:26.318Z,2.10
2018-11-12T03:01:38.510Z,1.10
2018-11-12T03:03:51.859Z,1.40
2018-11-12T03:06:04.150Z,0.90
2018-11-12T03:08:16.347Z,1.03
2018-11-12T03:10:28.526Z,0.90
2018-11-12T03:12:40.977Z,1.60
2018-11-12T03:14:53.159Z,0.60
2018-11-12T03:17:05.486Z,2.37
2018-11-12T03:19:17.691Z,0.80
2018-11-12T03:21:29.887Z,0.80
2018-11-12T03:23:42.066Z,1.00
2018-11-12T03:25:54.362Z,0.93
2018-11-12T03:28:06.543Z,0.70
2018-11-12T03:30:20.014Z,1.50
2018-11-12T03:32:32.223Z,1.03
2018-11-12T03:34:44.436Z,1.10
2018-11-12T03:36:56.657Z,1.50
2018-11-12T03:39:09.581Z,0.90
2018-11-12T03:41:21.834Z,1.10
2018-11-12T03:43:34.049Z,0.87
2018-11-12T03:45:46.283Z,0.67
2018-11-12T03:47:58.488Z,1.70
2018-11-12T03:50:12.937Z,1.40
2018-11-12T03:52:25.174Z,0.70
2018-11-12T03:54:37.422Z,0.70
2018-11-12T03:56:49.615Z,1.17
2018-11-12T03:59:01.822Z,0.77
2018-11-12T04:01:14.018Z,0.80
2018-11-12T04:03:26.198Z,0.90
2018-11-12T04:05:38.364Z,1.20
2018-11-12T04:07:50.573Z,0.90
2018-11-12T04:10:03.186Z,0.73
2018-11-12T04:12:15.347Z,2.17
2018-11-12T04:14:27.530Z,1.20
2018-11-12T04:16:41.470Z,1.37
2018-11-12T04:18:53.698Z,1.40
2018-11-12T04:21:05.841Z,1.30
2018-11-12T04:23:18.054Z,1.10
2018-11-12T04:25:30.987Z,1.30
2018-11-12T04:27:43.203Z,1.80
2018-11-12T04:29:55.416Z,1.50
2018-11-12T04:32:07.590Z,2.40
2018-11-12T04:34:19.815Z,1.70
2018-11-12T04:36:31.968Z,1.27
2018-11-12T04:38:44.154Z,2.10
2018-11-12T04:40:56.370Z,1.30
2018-11-12T04:43:08.543Z,1.43
2018-11-12T04:45:22.786Z,1.40
2018-11-12T04:47:35.008Z,1.40
2018-11-12T04:49:47.211Z,1.50
2018-11-12T04:51:59.399Z,2.30
2018-11-12T04:54:11.610Z,1.50
2018-11-12T04:56:23.824Z,0.90
2018-11-12T04:58:36.103Z,2.00
2018-11-12T05:00:48.330Z,1.30
2018-11-12T05:03:00.539Z,1.00
2018-11-12T05:05:14.183Z,1.87
2018-11-12T05:07:26.440Z,2.20
2018-11-12T05:09:38.675Z,2.00
2018-11-12T05:11:50.856Z,1.20
2018-11-12T05:14:03.108Z,1.63
2018-11-12T05:16:15.295Z,3.70
2018-11-12T05:18:27.446Z,2.50
2018-11-12T05:20:39.636Z,3.30
2018-11-12T05:22:51.855Z,2.67
2018-11-12T05:25:04.023Z,1.87
2018-11-12T05:27:16.263Z,2.33
2018-11-12T05:29:28.455Z,2.00
2018-11-12T05:31:40.676Z,1.60
2018-11-12T05:33:52.837Z,3.37
2018-11-12T05:36:05.408Z,3.40
2018-11-12T05:38:17.770Z,2.43
2018-11-12T05:40:30.161Z,2.80
2018-11-12T05:42:42.753Z,2.50
2018-11-12T05:44:55.001Z,2.90
2018-11-12T05:47:07.167Z,2.93
2018-11-12T05:49:19.350Z,2.87
2018-11-12T05:51:31.606Z,2.80
2018-11-12T05:53:43.840Z,3.03
2018-11-12T05:55:56.035Z,3.63
2018-11-12T05:58:08.218Z,6.77
2018-11-12T06:00:22.741Z,2.57
2018-11-12T06:02:35.006Z,2.90
2018-11-12T06:04:47.250Z,2.63
2018-11-12T06:06:59.400Z,2.60
2018-11-12T06:09:12.009Z,3.67
2018-11-12T06:11:24.208Z,4.90
2018-11-12T06:13:36.474Z,3.20
2018-11-12T06:15:54.294Z,2.87
2018-11-12T06:18:06.730Z,3.87
2018-11-12T06:20:21.536Z,3.13
2018-11-12T06:22:33.770Z,2.27
2018-11-12T06:24:45.976Z,2.30
2018-11-12T06:26:58.189Z,2.60
2018-11-12T06:29:10.429Z,2.90
2018-11-12T06:31:22.713Z,2.40
2018-11-12T06:33:34.858Z,5.20
2018-11-12T06:35:47.075Z,3.93
2018-11-12T06:37:59.282Z,3.27
2018-11-12T06:40:13.819Z,3.97
2018-11-12T06:42:26.093Z,3.97
2018-11-12T06:44:38.214Z,5.60
2018-11-12T06:46:50.449Z,2.53
2018-11-12T06:49:02.675Z,2.77
2018-11-12T06:51:14.903Z,3.73
2018-11-12T06:53:27.277Z,2.53
2018-11-12T06:55:39.437Z,4.80
2018-11-12T06:57:52.045Z,3.83
2018-11-12T07:00:07.162Z,3.83
2018-11-12T07:02:19.390Z,4.97
2018-11-12T07:04:31.718Z,5.13
2018-11-12T07:06:43.987Z,5.30
2018-11-12T07:08:56.162Z,4.23
2018-11-12T07:11:08.363Z,4.63
2018-11-12T07:13:20.670Z,4.73
2018-11-12T07:15:32.781Z,3.60
2018-11-12T07:17:44.993Z,3.20
2018-11-12T07:19:57.198Z,2.80
2018-11-12T07:22:09.395Z,3.77
2018-11-12T07:24:21.590Z,3.33
2018-11-12T07:26:33.809Z,3.23
2018-11-12T07:28:46.004Z,3.73
2018-11-12T07:30:58.320Z,3.33
2018-11-12T07:33:10.391Z,3.33
2018-11-12T07:35:22.907Z,1.80
2018-11-12T07:37:35.143Z,3.93
2018-11-12T07:39:47.390Z,2.80
2018-11-12T07:41:59.632Z,3.57
2018-11-12T07:44:11.791Z,7.37
2018-11-12T07:46:24.033Z,5.20
2018-11-12T07:48:36.214Z,4.33
2018-11-12T07:50:48.407Z,4.47
2018-11-12T07:53:00.661Z,4.03
2018-11-12T07:55:15.499Z,4.77
2018-11-12T07:57:27.719Z,2.70
2018-11-12T07:59:39.903Z,3.93
2018-11-12T08:01:52.166Z,4.30
2018-11-12T08:04:04.511Z,3.60
2018-11-12T08:06:16.694Z,3.07
2018-11-12T08:08:28.952Z,3.67
2018-11-12T08:10:41.141Z,3.10
2018-11-12T08:12:53.355Z,3.63
2018-11-12T08:15:07.158Z,3.73
2018-11-12T08:17:19.425Z,4.23
2018-11-12T08:19:31.619Z,10.67
2018-11-12T08:21:43.881Z,4.33
2018-11-12T08:23:56.055Z,4.43
2018-11-12T08:26:08.247Z,3.97
2018-11-12T08:28:20.466Z,4.20
2018-11-12T08:30:32.750Z,3.77
2018-11-12T08:32:45.930Z,2.43
2018-11-12T08:34:58.135Z,2.33
2018-11-12T08:37:10.389Z,2.70
2018-11-12T08:39:22.705Z,2.17
2018-11-12T08:41:34.860Z,2.47
2018-11-12T08:43:47.066Z,4.77
2018-11-12T08:45:59.333Z,2.40
2018-11-12T08:48:11.496Z,3.20
2018-11-12T08:50:24.926Z,2.60
2018-11-12T08:52:37.625Z,2.47
2018-11-12T08:54:49.862Z,3.67
2018-11-12T08:57:02.074Z,3.47
2018-11-12T08:59:14.389Z,3.80
2018-11-12T09:01:26.487Z,3.67
2018-11-12T09:03:38.663Z,4.63
2018-11-12T09:05:50.954Z,2.37
2018-11-12T09:08:03.197Z,5.27
2018-11-12T09:10:17.406Z,2.40
2018-11-12T09:12:29.466Z,2.00
2018-11-12T09:14:41.673Z,1.60
2018-11-12T09:16:53.940Z,3.27
2018-11-12T09:19:06.228Z,2.43
2018-11-12T09:21:18.474Z,2.77
2018-11-12T09:23:30.710Z,1.80
2018-11-12T09:25:42.928Z,2.00
2018-11-12T09:27:55.146Z,1.67
2018-11-12T09:30:10.114Z,1.67
2018-11-12T09:32:22.347Z,2.67
2018-11-12T09:34:34.585Z,1.63
2018-11-12T09:36:46.849Z,3.20
2018-11-12T09:41:11.082Z,3.33
2018-11-12T09:43:23.242Z,2.77
2018-11-12T09:45:35.685Z,5.73
2018-11-12T09:47:47.953Z,4.00
2018-11-12T09:50:00.170Z,4.30
2018-11-12T09:52:12.379Z,4.07
2018-11-12T09:54:24.719Z,5.23
2018-11-12T09:56:36.823Z,3.33
2018-11-12T09:58:49.037Z,2.03
2018-11-12T10:01:01.581Z,3.40
2018-11-12T10:03:14.433Z,2.57
2018-11-12T10:05:27.347Z,4.53
2018-11-12T10:07:39.961Z,4.73
2018-11-12T10:09:52.990Z,3.27
2018-11-12T10:12:05.361Z,4.23
2018-11-12T10:14:16.936Z,3.33
2018-11-12T10:16:30.082Z,4.77
2018-11-12T10:18:39.318Z,4.03
2018-11-12T10:20:51.520Z,4.23
2018-11-12T10:23:03.750Z,5.17
2018-11-12T10:25:16.013Z,4.57
2018-11-12T10:27:28.193Z,4.73
2018-11-12T10:29:40.475Z,3.77
2018-11-12T10:31:52.671Z,5.43
2018-11-12T10:34:05.378Z,4.67
2018-11-12T10:36:17.576Z,3.70
2018-11-12T10:38:29.800Z,4.73
2018-11-12T10:40:42.074Z,3.23
2018-11-12T10:42:54.325Z,4.77
2018-11-12T10:45:06.649Z,4.80
2018-11-12T10:47:18.941Z,5.37
2018-11-12T10:49:33.554Z,4.17
2018-11-12T10:51:46.155Z,3.87
2018-11-12T10:53:58.494Z,5.13
2018-11-12T10:56:10.658Z,4.00
2018-11-12T10:58:22.863Z,4.40
2018-11-12T11:00:40.918Z,6.53
2018-11-12T11:03:00.203Z,5.37
2018-11-12T11:05:12.383Z,4.97
2018-11-12T11:07:24.580Z,9.30
2018-11-12T11:09:36.806Z,8.00
2018-11-12T11:11:48.984Z,9.37
2018-11-12T11:14:01.197Z,10.23
2018-11-12T11:16:13.507Z,9.20
2018-11-12T11:18:25.665Z,8.57
2018-11-12T11:20:37.985Z,10.70
2018-11-12T11:22:50.183Z,7.57
2018-11-12T11:25:02.513Z,9.00
2018-11-12T11:27:14.715Z,7.03
2018-11-12T11:29:26.931Z,6.73
2018-11-12T11:31:39.128Z,5.63
2018-11-12T11:33:51.306Z,5.77
2018-11-12T11:36:03.514Z,5.33
2018-11-12T11:38:15.730Z,4.30
2018-11-12T11:40:28.180Z,5.77
2018-11-12T11:42:40.676Z,3.50
2018-11-12T11:44:52.983Z,3.50
2018-11-12T11:47:05.199Z,3.60
2018-11-12T11:49:17.439Z,3.70
2018-11-12T11:51:29.666Z,4.93
2018-11-12T11:53:41.919Z,5.43
2018-11-12T11:55:54.119Z,3.20
2018-11-12T11:58:06.331Z,3.60
2018-11-12T12:00:20.792Z,3.40
2018-11-12T12:02:33.012Z,3.40
2018-11-12T12:04:45.238Z,3.13
2018-11-12T12:06:57.472Z,3.93
2018-11-12T12:09:09.706Z,2.73
2018-11-12T12:11:21.923Z,2.90
2018-11-12T12:13:34.159Z,5.20
2018-11-12T12:15:46.331Z,4.43
2018-11-12T12:17:58.544Z,8.80
2018-11-12T12:20:14.487Z,6.77
2018-11-12T12:22:26.695Z,10.03
2018-11-12T12:24:39.062Z,7.73
2018-11-12T12:26:51.202Z,6.53
2018-11-12T12:29:03.747Z,6.20
2018-11-12T12:31:15.991Z,3.63
2018-11-12T12:33:28.267Z,4.07
2018-11-12T12:35:40.547Z,3.83
2018-11-12T12:37:53.077Z,5.20
2018-11-12T12:40:07.179Z,7.40
2018-11-12T12:42:19.351Z,4.63
2018-11-12T12:44:33.006Z,4.67
2018-11-12T12:46:45.322Z,4.40
2018-11-12T12:48:57.586Z,3.90
2018-11-12T12:51:09.821Z,4.90
2018-11-12T12:53:22.028Z,4.50
2018-11-12T12:55:34.411Z,3.50
2018-11-12T12:57:46.833Z,3.33
2018-11-12T12:59:59.123Z,3.43
2018-11-12T13:02:11.881Z,4.33
2018-11-12T13:04:24.189Z,2.30
2018-11-12T13:06:36.487Z,3.67
2018-11-12T13:08:48.737Z,3.43
2018-11-12T13:11:01.008Z,2.17
2018-11-12T13:13:13.251Z,3.43
2018-11-12T13:15:25.513Z,4.57
2018-11-12T13:17:37.767Z,4.83
2018-11-12T13:19:50.077Z,3.30
2018-11-12T13:22:02.231Z,2.40
2018-11-12T13:24:14.432Z,3.30
2018-11-12T13:26:26.663Z,5.47
2018-11-12T13:28:38.969Z,3.40
2018-11-12T13:30:51.311Z,4.40
2018-11-12T13:33:03.524Z,6.17
2018-11-12T13:35:17.403Z,7.80
2018-11-12T13:37:29.719Z,6.10
2018-11-12T13:39:41.907Z,5.07
2018-11-12T13:41:54.148Z,5.67
2018-11-12T13:44:06.417Z,4.40
2018-11-12T13:46:18.675Z,7.77
2018-11-12T13:48:30.832Z,5.60
2018-11-12T13:50:43.051Z,5.47
2018-11-12T13:52:55.734Z,5.20
2018-11-12T13:55:09.535Z,4.80
2018-11-12T13:57:21.764Z,3.93
2018-11-12T13:59:33.993Z,3.67
2018-11-12T14:01:46.180Z,3.30
2018-11-12T14:03:58.528Z,4.43
2018-11-12T14:06:10.786Z,3.03
2018-11-12T14:08:23.087Z,3.00
2018-11-12T14:10:35.348Z,4.87
2018-11-12T14:12:48.163Z,2.50
2018-11-12T14:15:02.427Z,1.43
2018-11-12T14:17:14.719Z,1.80
2018-11-12T14:19:26.968Z,3.23
2018-11-12T14:21:39.397Z,2.17
2018-11-12T14:23:51.356Z,2.37
2018-11-12T14:26:03.570Z,2.00
2018-11-12T14:28:15.868Z,4.07
2018-11-12T14:30:29.326Z,4.23
2018-11-12T14:32:41.527Z,2.40
2018-11-12T14:34:53.907Z,1.77
2018-11-12T14:37:06.184Z,2.33
2018-11-12T14:39:18.450Z,4.27
2018-11-12T14:41:30.643Z,2.87
2018-11-12T14:43:42.921Z,1.63
2018-11-12T14:45:55.114Z,4.30
2018-11-12T14:48:07.301Z,3.17
2018-11-12T14:50:19.523Z,3.60
2018-11-12T14:52:31.777Z,2.90
2018-11-12T14:54:44.040Z,2.77
2018-11-12T14:56:56.331Z,1.33
2018-11-12T14:59:08.542Z,2.20
2018-11-12T15:01:20.755Z,3.40
2018-11-12T15:03:33.008Z,1.53
2018-11-12T15:05:45.281Z,2.03
2018-11-12T15:07:57.482Z,2.00
2018-11-12T15:10:10.738Z,1.37
2018-11-12T15:12:22.993Z,3.10
2018-11-12T15:14:35.261Z,1.90
2018-11-12T15:16:47.492Z,1.43
2018-11-12T15:18:59.825Z,1.40
2018-11-12T15:21:12.104Z,5.03
2018-11-12T15:23:24.247Z,5.37
2018-11-12T15:25:36.534Z,1.30
2018-11-12T15:27:48.755Z,4.60
2018-11-12T15:30:00.996Z,2.03
2018-11-12T15:32:13.202Z,2.27
2018-11-12T15:34:25.452Z,2.83
2018-11-12T15:36:37.743Z,1.87
2018-11-12T15:38:49.890Z,2.10
2018-11-12T15:41:02.152Z,1.47
2018-11-12T15:43:14.463Z,1.93
2018-11-12T15:45:26.587Z,2.70
2018-11-12T15:47:38.771Z,2.27
2018-11-12T15:49:51.057Z,1.37
2018-11-12T15:52:03.367Z,1.90
2018-11-12T15:54:15.958Z,3.20
2018-11-12T15:56:28.228Z,4.23
2018-11-12T15:58:40.479Z,2.00
2018-11-12T16:00:52.732Z,2.70
2018-11-12T16:03:04.975Z,3.67
2018-11-12T16:05:17.249Z,3.33
2018-11-12T16:07:29.519Z,3.63
2018-11-12T16:09:41.745Z,2.20
2018-11-12T16:11:54.128Z,2.40
2018-11-12T16:14:06.637Z,1.30
2018-11-12T16:16:18.942Z,1.70
2018-11-12T16:18:31.162Z,1.50
2018-11-12T16:20:43.418Z,2.97
2018-11-12T16:22:56.709Z,4.93
2018-11-12T16:25:08.895Z,2.90
2018-11-12T16:27:21.143Z,4.03
2018-11-12T16:29:33.397Z,4.97
2018-11-12T16:31:45.582Z,3.67
2018-11-12T16:33:57.802Z,3.37
2018-11-12T16:36:09.995Z,5.63
2018-11-12T16:38:22.264Z,3.43
2018-11-12T16:40:34.486Z,3.43
2018-11-12T16:42:47.500Z,2.93
2018-11-12T16:44:59.798Z,2.73
2018-11-12T16:47:12.079Z,3.10
2018-11-12T16:49:24.328Z,2.30
2018-11-12T16:51:36.674Z,4.17
2018-11-12T16:53:48.988Z,3.73
2018-11-12T16:56:01.246Z,3.50
2018-11-12T16:58:13.442Z,3.93
2018-11-12T17:00:25.718Z,4.27
2018-11-12T17:02:38.020Z,3.43
2018-11-12T17:04:50.291Z,3.63
2018-11-12T17:07:02.526Z,2.13
2018-11-12T17:09:14.765Z,4.27
2018-11-12T17:11:27.009Z,3.10
2018-11-12T17:13:39.260Z,2.07
2018-11-12T17:15:51.498Z,3.27
2018-11-12T17:18:03.885Z,4.27
2018-11-12T17:20:17.512Z,3.47
2018-11-12T17:22:29.738Z,4.63
2018-11-12T17:24:42.012Z,2.87
2018-11-12T17:26:54.426Z,2.73
2018-11-12T17:29:06.677Z,2.07
2018-11-12T17:31:18.904Z,2.17
2018-11-12T17:33:31.159Z,2.13
2018-11-12T17:35:43.466Z,2.77
2018-11-12T17:37:55.693Z,2.53
2018-11-12T17:40:10.122Z,2.30
2018-11-12T17:42:22.438Z,2.57
2018-11-12T17:44:34.745Z,2.00
2018-11-12T17:46:46.915Z,3.57
2018-11-12T17:48:59.139Z,2.20
2018-11-12T17:51:11.398Z,2.63
2018-11-12T17:53:23.707Z,2.80
2018-11-12T17:55:35.954Z,2.97
2018-11-12T17:57:48.247Z,3.53
2018-11-12T18:00:00.493Z,3.23
2018-11-12T18:02:12.709Z,4.80
2018-11-12T18:04:24.941Z,2.00
2018-11-12T18:06:37.186Z,2.90
2018-11-12T18:08:49.467Z,4.13
2018-11-12T18:11:01.747Z,4.27
2018-11-12T18:13:13.991Z,3.57
2018-11-12T18:15:27.015Z,2.83
2018-11-12T18:17:39.292Z,3.40
2018-11-12T18:19:51.544Z,4.80
2018-11-12T18:22:03.791Z,5.50
2018-11-12T18:24:16.047Z,4.50
2018-11-12T18:26:28.276Z,2.30
2018-11-12T18:28:40.568Z,4.87
2018-11-12T18:30:53.059Z,5.70
2018-11-12T18:33:05.778Z,6.27
2018-11-12T18:35:18.047Z,3.33
2018-11-12T18:37:30.292Z,2.50
2018-11-12T18:39:42.498Z,4.07
2018-11-12T18:41:54.749Z,4.80
2018-11-12T18:44:07.146Z,4.73
2018-11-12T18:46:19.688Z,5.83
2018-11-12T18:48:31.913Z,7.47
2018-11-12T18:50:44.146Z,8.20
2018-11-12T18:52:56.487Z,5.20
2018-11-12T18:55:09.363Z,5.00
2018-11-12T18:57:21.671Z,7.80
2018-11-12T18:59:33.954Z,5.47
2018-11-12T19:01:46.174Z,7.53
2018-11-12T19:03:58.455Z,6.53
2018-11-12T19:06:10.783Z,7.17
2018-11-12T19:08:23.063Z,7.70
2018-11-12T19:10:35.305Z,6.00
2018-11-12T19:12:48.139Z,6.20
2018-11-12T19:15:00.412Z,6.47
2018-11-12T19:17:12.684Z,5.10
2018-11-12T19:19:24.932Z,4.67
2018-11-12T19:21:37.269Z,3.73
2018-11-12T19:23:49.539Z,5.53
2018-11-12T19:26:01.862Z,4.33
2018-11-12T19:28:14.176Z,6.93
2018-11-12T19:30:27.328Z,6.77
2018-11-12T19:32:39.749Z,6.03
2018-11-12T19:34:52.041Z,6.60
2018-11-12T19:37:04.695Z,7.10
2018-11-12T19:39:16.950Z,4.87
2018-11-12T19:41:29.190Z,7.43
2018-11-12T19:43:41.471Z,9.20
2018-11-12T19:45:53.776Z,7.60
2018-11-12T19:48:06.093Z,7.17
2018-11-12T19:50:19.727Z,7.07
2018-11-12T19:52:32.018Z,5.53
2018-11-12T19:54:44.314Z,6.57
2018-11-12T19:56:56.607Z,7.23
2018-11-12T19:59:08.950Z,5.23
2018-11-12T20:01:21.277Z,6.97
2018-11-12T20:03:33.551Z,7.13
2018-11-12T20:05:45.827Z,8.37
2018-11-12T20:07:58.174Z,8.57
2018-11-12T20:10:13.976Z,11.20
2018-11-12T20:12:26.261Z,12.90
2018-11-12T20:14:38.542Z,10.63
2018-11-12T20:16:50.789Z,8.37
2018-11-12T20:19:03.164Z,12.33
2018-11-12T20:21:15.409Z,12.23
2018-11-12T20:23:27.703Z,17.57
2018-11-12T20:25:40.016Z,11.90
2018-11-12T20:27:53.134Z,11.37
2018-11-12T20:30:08.580Z,11.30
2018-11-12T20:32:20.986Z,8.67
2018-11-12T20:34:33.300Z,6.97
2018-11-12T20:36:45.613Z,8.17
2018-11-12T20:38:57.966Z,4.67
2018-11-12T20:41:10.263Z,7.03
2018-11-12T20:43:22.524Z,4.10
2018-11-12T20:45:34.815Z,8.40
2018-11-12T20:47:48.479Z,6.73
2018-11-12T20:50:00.731Z,4.23
2018-11-12T20:52:13.006Z,5.50
2018-11-12T20:54:25.230Z,5.20
2018-11-12T20:56:37.555Z,3.40
2018-11-12T20:58:49.881Z,3.40
2018-11-12T21:01:02.170Z,4.93
2018-11-12T21:03:14.522Z,4.60
2018-11-12T21:05:28.055Z,4.30
2018-11-12T21:07:40.330Z,4.50
2018-11-12T21:09:52.575Z,3.77
2018-11-12T21:12:05.112Z,4.60
2018-11-12T21:14:17.409Z,2.83
2018-11-12T21:16:29.707Z,4.17
2018-11-12T21:18:41.966Z,3.43
2018-11-12T21:20:54.219Z,7.80
2018-11-12T21:23:06.534Z,3.70
2018-11-12T21:25:20.232Z,3.50
2018-11-12T21:27:32.449Z,4.43
2018-11-12T21:29:44.703Z,4.17
2018-11-12T21:31:57.023Z,3.40
2018-11-12T21:34:09.229Z,2.93
2018-11-12T21:36:21.470Z,4.10
2018-11-12T21:38:33.784Z,2.73
2018-11-12T21:40:46.031Z,4.50
2018-11-12T21:42:58.367Z,5.50
2018-11-12T21:45:12.164Z,8.57
2018-11-12T21:47:24.398Z,8.90
2018-11-12T21:49:36.648Z,9.87
2018-11-12T21:51:48.902Z,9.93
2018-11-12T21:54:01.555Z,10.97
2018-11-12T21:56:13.793Z,11.10
2018-11-12T21:58:26.126Z,10.23
2018-11-12T22:00:38.322Z,8.87
2018-11-12T22:02:52.033Z,11.10
2018-11-12T22:05:04.319Z,14.00
2018-11-12T22:07:16.581Z,12.23
2018-11-12T22:09:28.831Z,14.03
2018-11-12T22:11:41.053Z,13.83
2018-11-12T22:13:53.283Z,17.53
2018-11-12T22:16:06.194Z,13.20
2018-11-12T22:18:18.444Z,16.70
2018-11-12T22:20:30.691Z,17.37
2018-11-12T22:22:43.378Z,15.13
2018-11-12T22:24:55.652Z,12.43
2018-11-12T22:27:07.913Z,12.93
2018-11-12T22:29:20.180Z,9.80
2018-11-12T22:31:32.462Z,11.30
2018-11-12T22:33:44.727Z,9.93
2018-11-12T22:35:56.931Z,12.47
2018-11-12T22:38:09.215Z,17.53
2018-11-12T22:40:21.805Z,14.80
2018-11-12T22:42:34.039Z,12.57
2018-11-12T22:44:46.242Z,10.00
2018-11-12T22:46:58.430Z,16.23
2018-11-12T22:49:10.631Z,15.80
2018-11-12T22:51:22.855Z,11.67
2018-11-12T22:53:35.099Z,11.37
2018-11-12T22:55:47.352Z,11.63
2018-11-12T22:57:59.578Z,9.73
2018-11-12T23:00:23.462Z,11.33
2018-11-12T23:02:35.663Z,11.90
2018-11-12T23:04:47.895Z,10.57
2018-11-12T23:07:00.134Z,15.20
2018-11-12T23:09:16.537Z,13.47
2018-11-12T23:11:28.734Z,11.80
2018-11-12T23:13:40.923Z,9.70
2018-11-12T23:15:53.137Z,13.20
2018-11-12T23:18:05.478Z,11.33
2018-11-12T23:20:21.997Z,11.53
2018-11-12T23:22:34.163Z,8.37
2018-11-12T23:24:46.331Z,12.97
2018-11-12T23:26:58.542Z,10.30
2018-11-12T23:29:10.787Z,10.13
2018-11-12T23:31:22.975Z,9.53
2018-11-12T23:33:35.228Z,9.70
2018-11-12T23:35:47.465Z,8.77
2018-11-12T23:37:59.672Z,9.90
2018-11-12T23:40:12.335Z,8.17
2018-11-12T23:42:24.580Z,9.07
2018-11-12T23:44:36.775Z,8.73
2018-11-12T23:46:48.999Z,11.03
2018-11-12T23:49:01.234Z,12.90
2018-11-12T23:51:13.477Z,10.10
2018-11-12T23:53:25.710Z,10.37
2018-11-12T23:55:37.938Z,8.17
2018-11-12T23:57:50.438Z,8.53
